Time;durP1;ratioP1;P1;durP2;ratioP2;P2;SDS_P1;SDS_P2;PMS_P1;PMS_P2;Temp;Humidity;BMP_temperature;BMP_pressure;BME280_temperature;BME280_humidity;BME280_pressure;Samples;Min_cycle;Max_cycle;Signal;HPM_P1;HPM_P2
2021/06/12 00:02:16;;;;;;;18.02;6.28;;;;;;;-142.75;65.81;76971.88;5052528;28;19912;-72
2021/06/12 00:04:41;;;;;;;;;;;;;;;-142.75;65.72;76969.91;5053995;28;20058;-72
2021/06/12 00:07:06;;;;;;;11.93;5.97;;;;;;;-142.75;65.80;76964.00;5053002;28;20316;-73
2021/06/12 00:09:32;;;;;;;;;;;;;;;-142.75;65.56;76958.09;5052766;28;20399;-72
2021/06/12 00:11:57;;;;;;;12.48;5.38;;;;;;;-142.75;65.54;76964.00;5052123;28;19912;-73
2021/06/12 00:14:22;;;;;;;;;;;;;;;-142.75;65.71;76960.06;5053576;28;20497;-73
2021/06/12 00:16:48;;;;;;;16.00;6.00;;;;;;;-142.75;65.71;76962.03;5053000;28;20394;-72
2021/06/12 00:19:13;;;;;;;;;;;;;;;-142.75;65.72;76958.09;5053512;28;20024;-73
2021/06/12 00:21:39;;;;;;;16.20;6.00;;;;;;;-142.75;65.65;76962.03;5053094;28;19940;-73
2021/06/12 00:24:04;;;;;;;;;;;;;;;-142.75;65.81;76969.91;5054002;28;20052;-72
2021/06/12 00:26:30;;;;;;;16.30;6.28;;;;;;;-142.75;66.00;76964.00;5041866;28;20391;-74
2021/06/12 00:28:55;;;;;;;;;;;;;;;-142.75;66.17;76962.03;5033591;28;20036;-73
2021/06/12 00:31:20;;;;;;;16.10;5.82;;;;;;;-142.75;66.15;76958.09;5034366;28;19936;-73
2021/06/12 00:33:46;;;;;;;;;;;;;;;-142.75;65.97;76954.16;5053145;28;20083;-74
2021/06/12 00:36:11;;;;;;;14.25;5.88;;;;;;;-142.75;66.10;76954.16;5051567;28;19930;-73
2021/06/12 00:38:36;;;;;;;;;;;;;;;-142.75;66.10;76950.22;5050619;28;20017;-72
2021/06/12 00:41:02;;;;;;;15.07;5.68;;;;;;;-142.75;66.30;76950.22;5031969;28;19915;-73
2021/06/12 00:43:27;;;;;;;;;;;;;;;-142.75;66.30;76948.25;5051391;28;20056;-74
2021/06/12 00:45:52;;;;;;;13.02;5.18;;;;;;;-142.75;66.24;76948.25;5051995;28;19913;-73
2021/06/12 00:48:17;;;;;;;;;;;;;;;-142.75;66.45;76944.31;5033230;28;20033;-72
2021/06/12 00:50:43;;;;;;;12.57;5.82;;;;;;;-142.75;66.24;76948.25;5051061;28;19938;-72
2021/06/12 00:53:08;;;;;;;;;;;;;;;-142.75;66.18;76952.19;5053012;28;20036;-74
2021/06/12 00:55:34;;;;;;;14.43;5.93;;;;;;;-142.75;66.00;76944.31;5051985;28;19913;-73
2021/06/12 00:58:00;;;;;;;15.75;6.30;;;;;;;-142.75;65.98;76942.34;5052446;28;20025;-74
2021/06/12 01:00:25;;;;;;;;;;;;;;;-142.75;66.21;76942.34;5053314;28;20106;-73
2021/06/12 01:02:50;;;;;;;14.90;6.45;;;;;;;-142.75;65.91;76936.44;5033640;28;19962;-73
2021/06/12 01:05:18;;;;;;;;;;;;;;;-142.75;65.83;76930.53;5032719;28;20032;-73
2021/06/12 01:07:43;;;;;;;;;;;;;;;-142.75;66.18;76936.44;5032484;28;20313;-73
2021/06/12 01:10:11;;;;;;;15.38;6.32;;;;;;;-142.75;65.97;76930.53;5047924;28;19921;-74
2021/06/12 01:12:49;;;;;;;13.98;5.72;;;;;;;-142.75;66.05;76936.44;5050098;28;20410;-73
2021/06/12 01:15:16;;;;;;;15.07;6.15;;;;;;;-142.75;66.12;76940.38;5051866;28;20029;-73
2021/06/12 01:17:44;;;;;;;15.65;6.53;;;;;;;-142.75;66.11;76944.31;5052011;28;20498;-73
2021/06/12 01:20:50;;;;;;;14.40;5.60;;;;;;;-142.75;66.37;76940.38;5051915;28;20060;-73
2021/06/12 01:23:37;;;;;;;16.45;7.03;;;;;;;-142.75;66.35;76942.34;5048759;28;20037;-73
2021/06/12 01:26:21;;;;;;;;;;;;;;;-142.75;66.39;76940.38;5050812;28;20459;-73
2021/06/12 01:28:58;;;;;;;11.63;5.97;;;;;;;-142.75;66.21;76932.50;5051902;28;19967;-73
2021/06/12 01:31:24;;;;;;;14.43;6.32;;;;;;;-142.75;66.28;76932.50;5051971;28;20029;-73
2021/06/12 01:33:52;;;;;;;17.83;7.45;;;;;;;-142.75;66.03;76932.50;5051633;28;20037;-73
2021/06/12 01:36:18;;;;;;;16.55;6.68;;;;;;;-142.75;65.99;76932.50;5051341;28;20063;-73
2021/06/12 01:38:45;;;;;;;;;;;;;;;-142.75;65.99;76924.63;5050896;28;20060;-73
2021/06/12 01:41:15;;;;;;;17.27;6.57;;;;;;;-142.75;65.83;76920.69;5051678;28;19912;-72
2021/06/12 01:43:42;;;;;;;19.80;6.68;;;;;;;-142.75;65.54;76916.75;5051703;28;20036;-73
2021/06/12 01:46:12;;;;;;;19.05;6.78;;;;;;;-142.75;65.82;76916.75;5049770;28;20032;-74
2021/06/12 01:48:42;;;;;;;12.85;6.72;;;;;;;-142.75;66.03;76906.91;5050018;28;20032;-74
2021/06/12 01:51:09;;;;;;;14.93;6.70;;;;;;;-142.75;65.50;76904.94;5051996;28;20116;-73
2021/06/12 01:53:35;;;;;;;19.13;7.32;;;;;;;-142.75;65.01;76901.00;5038597;28;20026;-73
2021/06/12 01:56:05;;;;;;;15.20;6.13;;;;;;;-142.75;65.25;76904.94;5051270;28;20552;-72
2021/06/12 01:58:31;;;;;;;13.85;6.65;;;;;;;-142.75;64.66;76899.03;5050528;28;20507;-72
2021/06/12 02:00:58;;;;;;;10.75;5.75;;;;;;;-142.75;64.37;76902.97;5051447;28;20371;-74
2021/06/12 02:03:25;;;;;;;16.95;6.32;;;;;;;-142.75;63.85;76897.06;5051717;28;20094;-73
2021/06/12 02:05:51;;;;;;;15.13;6.50;;;;;;;-142.75;64.55;76901.00;5051300;28;20025;-74
2021/06/12 02:08:18;;;;;;;14.05;6.45;;;;;;;-142.75;63.67;76904.94;5051665;28;20107;-74
2021/06/12 02:10:46;;;;;;;12.63;6.63;;;;;;;-142.75;63.58;76910.84;5036924;28;20471;-75
2021/06/12 02:13:12;;;;;;;15.15;6.28;;;;;;;-142.75;63.48;76906.91;5031504;28;20036;-72
2021/06/12 02:15:38;;;;;;;;;;;;;;;-142.75;63.61;76902.97;5032075;28;20781;-73
2021/06/12 02:18:07;;;;;;;15.75;6.82;;;;;;;-142.75;63.33;76902.97;5030354;28;20008;-72
2021/06/12 02:20:35;;;;;;;14.80;6.68;;;;;;;-142.75;64.01;76914.78;5029722;28;20040;-74
2021/06/12 02:23:03;;;;;;;15.65;7.40;;;;;;;-142.75;63.88;76918.72;5031835;28;20048;-74
2021/06/12 02:25:28;;;;;;;11.68;6.70;;;;;;;-142.75;63.30;76916.75;5050315;28;20024;-74
2021/06/12 02:27:55;;;;;;;;;;;;;;;-142.75;63.91;76928.56;5049854;28;20039;-74
2021/06/12 02:30:26;;;;;;;15.82;6.38;;;;;;;-142.75;63.84;76924.63;5050857;28;19913;-73
2021/06/12 02:32:58;;;;;;;12.57;6.10;;;;;;;-142.75;64.39;76928.56;5051003;28;20056;-73
2021/06/12 02:35:23;;;;;;;15.35;6.60;;;;;;;-142.75;64.10;76924.63;5050671;28;20105;-73
2021/06/12 02:37:48;;;;;;;;;;;;;;;-142.75;63.97;76920.69;5049873;28;20112;-74
2021/06/12 02:40:14;;;;;;;14.50;5.72;;;;;;;-142.75;64.12;76926.59;5050737;28;19913;-73
2021/06/12 02:42:39;;;;;;;;;;;;;;;-142.75;63.83;76922.66;5051406;28;20098;-73
2021/06/12 02:45:08;;;;;;;14.88;5.90;;;;;;;-142.75;64.11;76920.69;5066295;28;19921;-74
2021/06/12 02:47:54;;;;;;;14.70;6.25;;;;;;;-142.75;63.93;76928.56;5050528;28;20029;-73
2021/06/12 02:50:22;;;;;;;12.32;5.65;;;;;;;-142.75;63.55;76924.63;5050932;28;20036;-74
2021/06/12 02:52:51;;;;;;;10.80;6.05;;;;;;;-142.75;63.67;76926.59;5051252;28;20040;-73
2021/06/12 02:55:17;;;;;;;14.82;5.63;;;;;;;-142.75;64.05;76930.53;5049000;28;20090;-73
2021/06/12 02:57:47;;;;;;;;;;;;;;;-142.75;64.29;76934.47;5050710;28;20470;-73
2021/06/12 03:00:16;;;;;;;15.23;6.40;;;;;;;-142.75;63.92;76936.44;5050799;28;19916;-74
2021/06/12 03:02:44;;;;;;;12.68;6.18;;;;;;;-142.75;63.79;76932.50;5050855;28;20037;-73
2021/06/12 03:05:15;;;;;;;14.80;6.28;;;;;;;-142.75;63.79;76928.56;5045286;28;20026;-74
2021/06/12 03:07:44;;;;;;;16.10;6.65;;;;;;;-142.75;63.26;76926.59;5058793;22;20037;-73
2021/06/12 03:10:10;;;;;;;16.92;6.30;;;;;;;-142.75;63.42;76926.59;5046412;28;20506;-76
2021/06/12 03:12:35;;;;;;;;;;;;;;;-142.75;63.40;76932.50;5049634;28;20071;-75
2021/06/12 03:15:01;;;;;;;12.77;6.28;;;;;;;-142.75;63.64;76942.34;5050211;28;19913;-76
2021/06/12 03:17:28;;;;;;;13.25;5.60;;;;;;;-142.75;63.71;76948.25;5048566;28;20037;-75
2021/06/12 03:19:56;;;;;;;12.30;6.90;;;;;;;-142.75;63.48;76946.28;5050195;28;20039;-75
2021/06/12 03:22:22;;;;;;;18.17;6.97;;;;;;;-142.75;63.54;76948.25;5048765;28;20036;-75
2021/06/12 03:24:47;;;;;;;11.60;6.38;;;;;;;-142.75;63.60;76948.25;5049771;28;20061;-76
2021/06/12 03:27:13;;;;;;;;;;;;;;;-142.75;63.79;76954.16;5050378;28;20059;-75
2021/06/12 03:29:40;;;;;;;17.35;7.07;;;;;;;-142.75;63.67;76956.13;5048801;28;19999;-75
2021/06/12 03:32:06;;;;;;;13.45;7.07;;;;;;;-142.75;63.73;76958.09;5052478;28;20025;-75
2021/06/12 03:34:32;;;;;;;14.05;7.10;;;;;;;-142.75;63.60;76954.16;5052862;28;20029;-76
2021/06/12 03:36:57;;;;;;;;;;;;;;;-142.75;63.35;76962.03;5054017;28;20107;-76
2021/06/12 03:39:23;;;;;;;18.95;6.93;;;;;;;-142.75;63.77;76969.91;5052400;28;19975;-76
2021/06/12 03:41:48;;;;;;;;;;;;;;;-142.75;63.61;76981.72;5054265;28;20036;-75
2021/06/12 03:44:14;;;;;;;13.57;7.80;;;;;;;-142.75;63.83;76991.56;5053795;28;19920;-75
2021/06/12 03:46:42;;;;;;;;;;;;;;;-142.75;63.97;76995.50;5052546;28;20082;-75
2021/06/12 03:49:10;;;;;;;14.02;7.65;;;;;;;-142.75;64.15;76991.56;5053554;28;20427;-75
2021/06/12 03:51:37;;;;;;;15.45;7.82;;;;;;;-142.75;64.10;76989.59;5053678;28;20033;-76
2021/06/12 03:54:05;;;;;;;13.50;6.72;;;;;;;-142.75;64.08;76981.72;5053376;28;20055;-76
2021/06/12 03:56:33;;;;;;;16.00;7.22;;;;;;;-142.75;64.25;76989.59;5051853;28;20531;-75
2021/06/12 03:59:00;;;;;;;13.48;7.00;;;;;;;-142.75;63.79;76991.56;5052047;28;20057;-76
2021/06/12 04:01:25;;;;;;;14.63;7.63;;;;;;;-142.75;63.88;76995.50;5053311;28;20437;-74
2021/06/12 04:03:50;;;;;;;;;;;;;;;-142.75;64.29;76995.50;5052526;28;20037;-75
2021/06/12 04:06:16;;;;;;;14.88;6.40;;;;;;;-142.75;64.05;76995.50;5052914;28;19916;-76
2021/06/12 04:08:41;;;;;;;;;;;;;;;-142.75;64.08;76991.56;5053340;28;20078;-76
2021/06/12 04:11:07;;;;;;;12.40;6.72;;;;;;;-142.75;64.25;77007.31;5051893;28;20051;-76
2021/06/12 04:13:33;;;;;;;14.70;6.90;;;;;;;-142.75;64.37;77007.31;5053143;28;20021;-75
2021/06/12 04:15:58;;;;;;;;;;;;;;;-142.75;63.45;77007.31;5053397;28;20044;-76
2021/06/12 04:18:24;;;;;;;12.13;6.28;;;;;;;-142.75;62.96;77017.16;5052951;28;19913;-76
2021/06/12 04:20:49;;;;;;;;;;;;;;;-142.75;62.99;77021.09;5052073;28;20089;-75
2021/06/12 04:23:15;;;;;;;13.95;6.82;;;;;;;-142.75;63.04;77023.06;5052787;28;19912;-76
2021/06/12 04:25:40;;;;;;;;;;;;;;;-142.75;62.96;77023.06;5053165;28;20039;-76
2021/06/12 04:28:06;;;;;;;14.88;5.85;;;;;;;-142.75;63.42;77032.91;5052699;28;20021;-76
2021/06/12 04:30:31;;;;;;;;;;;;;;;-142.75;63.45;77034.88;5051931;28;20020;-76
2021/06/12 04:32:57;;;;;;;11.13;5.57;;;;;;;-142.75;62.78;77027.00;5052742;28;20367;-76
2021/06/12 04:35:23;;;;;;;;;;;;;;;-142.75;62.46;77027.00;5051523;28;20070;-74
2021/06/12 04:37:48;;;;;;;10.70;5.38;;;;;;;-142.75;62.89;77025.03;5051292;28;19995;-77
2021/06/12 04:40:14;;;;;;;;;;;;;;;-142.75;62.68;77019.13;5051998;28;20031;-76
2021/06/12 04:42:40;;;;;;;15.45;5.00;;;;;;;-142.75;62.01;77015.19;5052295;28;19913;-77
2021/06/12 04:45:07;;;;;;;11.75;5.03;;;;;;;-142.75;61.77;77017.16;5052654;28;20021;-77
2021/06/12 04:47:33;;;;;;;13.82;5.32;;;;;;;-142.75;61.57;77019.13;5051096;28;20044;-75
2021/06/12 04:49:58;;;;;;;;;;;;;;;-142.75;61.80;77013.22;5051438;28;20060;-75
2021/06/12 04:52:23;;;;;;;9.77;4.97;;;;;;;-142.75;62.17;77015.19;5051025;28;19913;-76
2021/06/12 04:54:49;;;;;;;;;;;;;;;-142.75;61.42;77005.34;5051477;28;20013;-77
2021/06/12 04:57:14;;;;;;;10.57;4.82;;;;;;;-142.75;61.56;77001.41;5050853;28;20004;-76
2021/06/12 04:59:39;;;;;;;;;;;;;;;-142.75;61.95;77005.34;5052467;28;20367;-76
2021/06/12 05:02:04;;;;;;;11.55;4.85;;;;;;;-142.75;61.58;77007.31;5052269;28;19974;-76
2021/06/12 05:04:30;;;;;;;;;;;;;;;-142.75;61.43;76997.47;5052552;28;20060;-75
2021/06/12 05:06:55;;;;;;;9.95;4.95;;;;;;;-142.75;60.29;76985.66;5051824;28;19947;-76
2021/06/12 05:09:20;;;;;;;;;;;;;;;-142.75;60.60;76987.63;5051180;28;20021;-74
2021/06/12 05:11:46;;;;;;;8.43;4.28;;;;;;;-142.75;59.96;76995.50;5051902;28;19916;-77
2021/06/12 05:14:11;;;;;;;;;;;;;;;-142.75;60.71;76999.44;5051148;28;20028;-76
2021/06/12 05:16:37;;;;;;;11.32;4.78;;;;;;;-142.75;60.25;77003.38;5051530;28;19984;-76
2021/06/12 05:19:03;;;;;;;11.43;5.38;;;;;;;-142.75;60.75;77007.31;5050345;28;20052;-76
2021/06/12 05:21:31;;;;;;;;;;;;;;;-142.75;60.17;77009.28;5052278;28;20486;-76
2021/06/12 05:23:57;;;;;;;8.93;4.00;;;;;;;-142.75;60.88;77007.31;5051828;28;19916;-76
2021/06/12 05:26:23;;;;;;;9.30;4.40;;;;;;;-142.75;59.28;76993.53;5051374;28;20500;-77
2021/06/12 05:28:48;;;;;;;;;;;;;;;-142.75;59.17;76981.72;5052122;28;20025;-76
2021/06/12 05:31:14;;;;;;;10.27;3.95;;;;;;;-142.75;58.76;76967.94;5051757;28;19995;-75
2021/06/12 05:33:39;;;;;;;11.55;4.40;;;;;;;-142.75;59.58;76962.03;5050012;28;20111;-77
2021/06/12 05:36:05;;;;;;;;;;;;;;;-142.75;59.28;76948.25;5051533;28;20036;-76
2021/06/12 05:38:32;;;;;;;10.38;3.95;;;;;;;-142.75;57.39;76930.53;5052416;28;20285;-78
2021/06/12 05:40:57;;;;;;;12.60;4.03;;;;;;;-142.75;57.10;76920.69;5052834;28;20028;-76
2021/06/12 05:43:24;;;;;;;10.98;3.90;;;;;;;-142.75;56.57;76904.94;5051438;28;20512;-76
2021/06/12 05:45:49;;;;;;;11.68;3.60;;;;;;;-142.75;56.04;76889.19;5049159;28;20103;-76
2021/06/12 05:48:14;;;;;;;8.38;3.83;;;;;;;-142.75;55.40;76877.38;5050434;28;20155;-76
2021/06/12 05:50:40;;;;;;;7.28;3.67;;;;;;;-142.75;55.35;76877.38;5049770;28;20127;-76
2021/06/12 05:53:06;;;;;;;10.57;3.42;;;;;;;-142.75;55.52;76865.56;5047893;28;20111;-75
2021/06/12 05:55:31;;;;;;;;;;;;;;;-142.75;53.80;76853.75;5049374;28;20394;-75
2021/06/12 05:57:56;;;;;;;8.07;3.25;;;;;;;-142.75;53.34;76851.78;5050513;28;19924;-76
2021/06/12 06:00:21;;;;;;;;;;;;;;;-142.75;54.52;76853.75;5049630;28;20025;-77
2021/06/12 06:02:47;;;;;;;9.48;3.03;;;;;;;-142.75;53.03;76849.81;5050924;28;20289;-76
2021/06/12 06:05:12;;;;;;;;;;;;;;;-142.75;53.79;76849.81;5051496;28;20017;-74
2021/06/12 06:07:38;;;;;;;9.00;2.95;;;;;;;-142.75;53.34;76818.31;5050382;28;19912;-77
2021/06/12 06:10:03;;;;;;;;;;;;;;;-142.75;52.00;76782.91;5049668;28;20124;-75
2021/06/12 06:12:30;;;;;;;11.02;3.10;;;;;;;-142.75;50.17;76782.91;5050568;28;19916;-75
2021/06/12 06:14:55;;;;;;;9.57;2.72;;;;;;;-142.75;50.14;76802.56;5051187;28;20025;-76
2021/06/12 06:17:21;;;;;;;8.95;2.72;;;;;;;-142.75;51.46;76826.19;5049667;28;20705;-76
2021/06/12 06:19:46;;;;;;;8.43;2.70;;;;;;;-142.75;51.75;76826.19;5050758;28;20036;-77
2021/06/12 06:22:11;;;;;;;8.07;3.00;;;;;;;-142.75;52.81;76832.09;5049637;28;20074;-74
2021/06/12 06:24:37;;;;;;;;;;;;;;;-142.75;51.60;76810.44;5051186;28;20021;-76
2021/06/12 06:27:02;;;;;;;10.23;2.42;;;;;;;-142.75;50.31;76790.78;5050416;28;19913;-76
2021/06/12 06:29:28;;;;;;;8.90;2.88;;;;;;;-142.75;50.12;76800.63;5050633;28;20052;-76
2021/06/12 06:31:53;;;;;;;;;;;;;;;-142.75;49.70;76810.44;5049930;28;20025;-76
2021/06/12 06:34:18;;;;;;;7.43;2.47;;;;;;;-142.75;51.06;76843.91;5050515;28;20019;-76
2021/06/12 06:36:44;;;;;;;;;;;;;;;-142.75;50.90;76838.00;5048938;28;20102;-76
2021/06/12 06:39:09;;;;;;;9.82;2.65;;;;;;;-142.75;51.00;76818.31;5050760;28;20259;-76
2021/06/12 06:41:34;;;;;;;;;;;;;;;-142.75;51.95;76790.78;5050342;28;20021;-77
2021/06/12 06:44:00;;;;;;;7.18;2.65;;;;;;;-142.75;49.54;76765.19;5050775;28;20436;-76
2021/06/12 06:46:25;;;;;;;;;;;;;;;-142.75;50.27;76757.31;5050225;28;20040;-76
2021/06/12 06:48:51;;;;;;;9.60;2.70;;;;;;;-142.75;49.42;76747.47;5050545;28;19924;-76
2021/06/12 06:51:16;;;;;;;6.85;2.58;;;;;;;-142.75;47.56;76737.63;5049398;28;20068;-75
2021/06/12 06:53:42;;;;;;;6.65;2.25;;;;;;;-142.75;49.59;76751.41;5049074;28;20109;-76
2021/06/12 06:56:07;;;;;;;6.60;2.25;;;;;;;-142.75;49.92;76751.41;5050005;28;20025;-76
2021/06/12 06:58:33;;;;;;;4.55;2.05;;;;;;;-142.75;47.54;76759.28;5049792;28;20490;-75
2021/06/12 07:00:59;;;;;;;8.65;2.40;;;;;;;-142.75;49.00;76777.00;5050392;28;20150;-75
2021/06/12 07:03:25;;;;;;;8.13;2.60;;;;;;;-142.75;47.68;76804.53;5050257;28;20107;-76
2021/06/12 07:05:52;;;;;;;8.18;2.00;;;;;;;-142.75;48.32;76830.13;5050922;28;20552;-76
2021/06/12 07:08:17;;;;;;;7.18;2.60;;;;;;;-142.75;49.61;76806.50;5054051;28;20482;-76
2021/06/12 07:10:43;;;;;;;9.35;2.70;;;;;;;-142.75;49.41;76777.00;5053109;28;20021;-75
2021/06/12 07:13:08;;;;;;;6.75;2.30;;;;;;;-142.75;47.10;76763.22;5054121;28;20029;-76
2021/06/12 07:15:33;;;;;;;;;;;;;;;-142.75;47.11;76759.28;5053130;28;20027;-76
2021/06/12 07:17:59;;;;;;;6.55;2.13;;;;;;;-142.75;47.62;76751.41;5052586;28;19916;-76
2021/06/12 07:20:25;;;;;;;8.82;3.03;;;;;;;-142.75;47.23;76714.00;5052791;28;20056;-75
2021/06/12 07:22:50;;;;;;;8.73;2.22;;;;;;;-142.75;47.11;76696.28;5052686;28;20033;-75
2021/06/12 07:25:16;;;;;;;5.13;2.33;;;;;;;-142.75;47.35;76690.38;5052524;28;20029;-76
2021/06/12 07:27:42;;;;;;;6.38;2.10;;;;;;;-142.75;45.73;76664.78;5053631;28;20036;-76
2021/06/12 07:30:08;;;;;;;;;;;;;;;-142.75;46.08;76641.16;5053153;28;20039;-75
2021/06/12 07:32:33;;;;;;;7.23;2.40;;;;;;;-142.75;46.38;76625.41;5052596;28;19940;-76
2021/06/12 07:34:59;;;;;;;6.72;2.30;;;;;;;-142.75;46.56;76601.78;5053587;28;20025;-75
2021/06/12 07:37:24;;;;;;;7.60;2.47;;;;;;;-142.75;45.85;76562.41;5053555;28;20059;-74
2021/06/12 07:39:50;;;;;;;9.73;2.20;;;;;;;-142.75;44.57;76546.66;5052341;28;20159;-75
2021/06/12 07:42:16;;;;;;;7.60;2.30;;;;;;;-142.75;44.82;76552.56;5053474;28;20052;-76
2021/06/12 07:44:41;;;;;;;9.32;2.08;;;;;;;-142.75;44.35;76562.41;5053453;28;20068;-76
2021/06/12 07:47:07;;;;;;;7.18;2.10;;;;;;;-142.75;44.92;76617.53;5051174;28;20029;-76
2021/06/12 07:49:32;;;;;;;7.32;2.28;;;;;;;-142.75;46.16;76676.59;5052251;28;20029;-76
2021/06/12 07:51:58;;;;;;;11.68;2.20;;;;;;;-142.75;45.02;76672.66;5051934;28;20123;-75
2021/06/12 07:54:23;;;;;;;8.02;2.35;;;;;;;-142.75;45.36;76672.66;5051640;28;20039;-74
2021/06/12 07:56:49;;;;;;;6.95;2.30;;;;;;;-142.75;45.53;76688.41;5049875;28;20048;-74
2021/06/12 07:59:14;;;;;;;5.65;2.42;;;;;;;-142.75;46.68;76660.84;5050131;28;20029;-76
2021/06/12 08:01:40;;;;;;;6.57;2.03;;;;;;;-142.75;46.86;76656.91;5051081;28;20039;-76
2021/06/12 08:04:05;;;;;;;9.50;2.45;;;;;;;-142.75;46.05;76680.53;5050857;28;20074;-76
2021/06/12 08:06:30;;;;;;;6.88;2.58;;;;;;;-142.75;46.13;76719.91;5053060;28;20027;-75
2021/06/12 08:08:56;;;;;;;8.85;2.38;;;;;;;-142.75;46.26;76729.75;5052947;28;20037;-76
2021/06/12 08:11:22;;;;;;;12.38;2.97;;;;;;;-142.75;46.71;76751.41;5052913;28;20087;-76
2021/06/12 08:13:47;;;;;;;;;;;;;;;-142.75;46.10;76784.88;5053284;28;20494;-75
2021/06/12 08:16:12;;;;;;;6.97;2.30;;;;;;;-142.75;47.01;76802.56;5051053;28;19931;-76
2021/06/12 08:18:38;;;;;;;;;;;;;;;-142.75;47.08;76808.50;5052894;28;20032;-75
2021/06/12 08:21:03;;;;;;;10.93;3.10;;;;;;;-142.75;46.92;76794.69;5051575;28;20381;-75
2021/06/12 08:23:29;;;;;;;;;;;;;;;-142.75;46.66;76786.84;5053037;28;20036;-75
2021/06/12 08:25:54;;;;;;;9.57;2.78;;;;;;;-142.75;46.16;76777.00;5052695;28;19920;-74
2021/06/12 08:28:20;;;;;;;7.60;2.60;;;;;;;-142.75;46.60;76771.09;5052698;28;20025;-76
2021/06/12 08:30:45;;;;;;;10.52;2.40;;;;;;;-142.75;47.33;76735.66;5052779;28;20017;-76
2021/06/12 08:33:11;;;;;;;;;;;;;;;-142.75;47.20;76682.50;5053022;28;20028;-76
2021/06/12 08:35:38;;;;;;;9.07;2.47;;;;;;;-142.75;45.18;76649.03;5050951;28;19923;-76
2021/06/12 08:38:04;;;;;;;9.93;2.78;;;;;;;-142.75;45.69;76595.88;5052597;28;20036;-76
2021/06/12 08:40:30;;;;;;;7.18;2.28;;;;;;;-142.75;43.29;76593.91;5051407;28;20029;-76
2021/06/12 08:42:56;;;;;;;8.10;2.30;;;;;;;-142.75;44.03;76625.41;5051341;28;20035;-76
2021/06/12 08:45:28;;;;;;;7.88;2.30;;;;;;;-142.75;45.61;76629.34;5052283;28;20487;-76
2021/06/12 08:47:57;;;;;;;11.25;2.50;;;;;;;-142.75;45.10;76621.47;5052553;28;20033;-75
2021/06/12 08:50:24;;;;;;;7.40;2.47;;;;;;;-142.75;43.95;76556.50;5052513;28;20025;-76
2021/06/12 08:52:53;;;;;;;8.65;3.20;;;;;;;-142.75;43.66;76444.31;5050896;28;20064;-75
2021/06/12 08:55:19;;;;;;;8.85;2.70;;;;;;;-142.75;42.52;76412.81;5052123;28;20048;-74
2021/06/12 08:57:45;;;;;;;8.38;2.17;;;;;;;-142.75;40.40;76432.50;5052071;28;20035;-75
2021/06/12 09:00:12;;;;;;;7.55;2.25;;;;;;;-142.75;41.03;76401.00;5052216;28;20021;-75
2021/06/12 09:03:15;;;;;;;11.32;2.42;;;;;;;-142.75;41.49;76416.75;5051690;28;20024;-76
2021/06/12 09:05:40;;;;;;;10.55;2.92;;;;;;;-142.75;41.68;76406.91;5051861;28;20059;-76
2021/06/12 09:10:34;;;;;;;6.85;2.30;;;;;;;-142.75;39.09;76286.84;5061548;28;20049;-74
2021/06/12 09:13:01;;;;;;;8.13;1.90;;;;;;;-142.75;38.27;76308.50;5070851;28;20059;-73
2021/06/12 09:15:27;;;;;;;8.23;2.40;;;;;;;-142.75;39.00;76269.13;5069476;28;20028;-76
2021/06/12 09:17:52;;;;;;;8.90;2.45;;;;;;;-142.75;39.04;76286.84;5071862;28;20436;-75
2021/06/12 09:20:42;;;;;;;9.30;2.10;;;;;;;-142.75;37.90;76267.16;5062971;28;20027;-75
2021/06/12 09:23:16;;;;;;;9.48;2.20;;;;;;;-142.75;38.53;76308.50;5050776;28;20441;-75
2021/06/12 09:25:47;;;;;;;6.97;1.83;;;;;;;-142.75;37.04;76300.63;5050524;28;20037;-75
2021/06/12 09:28:14;;;;;;;6.95;1.73;;;;;;;-142.75;36.44;76292.75;5069753;28;20097;-74
2021/06/12 09:30:39;;;;;;;5.53;1.70;;;;;;;-142.75;36.79;76282.91;5070604;28;20021;-75
2021/06/12 09:33:05;;;;;;;6.40;1.65;;;;;;;-142.75;36.97;76271.09;5087133;28;20031;-75
2021/06/12 09:35:42;;;;;;;6.40;1.73;;;;;;;-142.75;37.50;76162.84;5067216;28;20028;-74
2021/06/12 09:38:32;;;;;;;5.93;1.77;;;;;;;-142.75;35.73;76091.97;5058262;28;20498;-74
2021/06/12 09:40:58;;;;;;;6.60;1.73;;;;;;;-142.75;36.06;76156.94;5062386;28;20040;-74
2021/06/12 09:43:31;;;;;;;6.43;1.80;;;;;;;-142.75;35.51;76239.59;5071797;28;20020;-75
2021/06/12 09:45:57;;;;;;;6.72;2.03;;;;;;;-142.75;37.05;76377.38;5071212;28;20024;-75
2021/06/12 09:48:23;;;;;;;5.82;1.92;;;;;;;-142.75;38.38;76509.28;5071715;28;20040;-75
2021/06/12 09:51:09;;;;;;;8.48;1.95;;;;;;;-142.75;39.23;76586.03;5071872;28;20464;-74
2021/06/12 09:53:46;;;;;;;3.73;1.70;;;;;;;-142.75;40.58;76637.22;5072807;28;20025;-76
2021/06/12 09:56:12;;;;;;;9.10;2.22;;;;;;;-142.75;40.93;76649.03;5072012;28;20074;-74
2021/06/12 09:58:37;;;;;;;8.15;2.05;;;;;;;-142.75;40.74;76649.03;5072791;28;20032;-75
2021/06/12 10:01:11;;;;;;;8.10;2.00;;;;;;;-142.75;40.67;76605.72;5071412;28;20082;-75
2021/06/12 10:03:37;;;;;;;8.73;1.80;;;;;;;-142.75;40.52;76578.16;5070899;28;20045;-75
2021/06/12 10:06:12;;;;;;;7.05;1.92;;;;;;;-142.75;39.56;76507.31;5071104;28;20101;-73
2021/06/12 10:08:40;;;;;;;7.10;2.03;;;;;;;-142.75;38.30;76471.88;5071023;28;20029;-74
2021/06/12 10:11:05;;;;;;;11.05;2.03;;;;;;;-142.75;39.07;76485.66;5051107;28;20021;-74
2021/06/12 10:13:32;;;;;;;11.00;2.28;;;;;;;-142.75;39.78;76473.84;5065293;28;20086;-75
2021/06/12 10:15:59;;;;;;;6.63;1.80;;;;;;;-142.75;38.65;76393.13;5069661;28;20078;-75
2021/06/12 10:18:25;;;;;;;6.60;1.83;;;;;;;-142.75;38.94;76280.94;5069811;28;20024;-73
2021/06/12 10:20:50;;;;;;;7.22;1.88;;;;;;;-142.75;37.20;76310.47;5071817;28;20037;-75
2021/06/12 10:23:16;;;;;;;8.05;2.00;;;;;;;-142.75;37.28;76373.44;5072048;28;20025;-74
2021/06/12 10:25:41;;;;;;;9.00;2.20;;;;;;;-142.75;38.37;76377.38;5071874;28;20393;-73
2021/06/12 10:28:08;;;;;;;9.13;2.25;;;;;;;-142.75;37.59;76328.19;5070635;28;20047;-74
2021/06/12 10:30:34;;;;;;;7.22;2.05;;;;;;;-142.75;36.03;76261.25;5071136;28;20024;-74
2021/06/12 10:33:00;;;;;;;8.05;2.10;;;;;;;-142.75;35.64;76204.16;5066671;28;20024;-75
2021/06/12 10:35:28;;;;;;;5.80;1.85;;;;;;;-142.75;34.88;76151.03;5050898;28;20029;-74
2021/06/12 10:37:57;;;;;;;6.35;1.90;;;;;;;-142.75;34.85;76212.03;5050917;28;20127;-75
2021/06/12 10:40:38;;;;;;;8.52;1.95;;;;;;;-142.75;36.09;76263.22;5055604;28;20474;-75
2021/06/12 10:43:11;;;;;;;7.13;2.22;;;;;;;-142.75;35.87;76200.25;5057636;28;20035;-73
2021/06/12 10:45:37;;;;;;;8.82;1.80;;;;;;;-142.75;35.16;76160.88;5058238;28;20017;-74
2021/06/12 10:48:03;;;;;;;7.70;1.75;;;;;;;-142.75;35.04;76082.13;5057447;28;20075;-74
2021/06/12 10:50:41;;;;;;;7.88;2.05;;;;;;;-142.75;35.97;76030.97;5057571;28;20035;-73
2021/06/12 10:53:15;;;;;;;6.63;1.70;;;;;;;-142.75;33.39;76032.94;5058196;28;20025;-73
2021/06/12 10:55:53;;;;;;;6.95;2.00;;;;;;;-142.75;35.01;76030.97;5056487;28;20758;-75
2021/06/12 10:58:32;;;;;;;7.05;1.98;;;;;;;-142.75;35.11;75975.84;5057099;28;20033;-75
2021/06/12 11:03:56;;;;;;;6.13;1.98;;;;;;;-142.75;35.42;75993.56;5058047;28;20021;-74
2021/06/12 11:09:13;;;;;;;9.02;2.25;;;;;;;-142.75;32.40;75948.31;5057519;28;20371;-74
2021/06/12 11:11:48;;;;;;;9.95;1.90;;;;;;;-142.75;34.45;75956.19;5062027;28;20064;-75
2021/06/12 11:14:26;;;;;;;6.07;1.97;;;;;;;-142.75;33.81;76046.72;5079384;28;20540;-75
2021/06/12 11:17:10;;;;;;;6.65;1.70;;;;;;;-142.75;34.62;76078.19;5078585;28;20032;-74
2021/06/12 11:19:50;;;;;;;9.65;2.00;;;;;;;-142.75;34.60;76019.16;5077218;28;20034;-74
2021/06/12 11:22:50;;;;;;;5.75;1.90;;;;;;;-142.75;34.75;75989.63;5077511;28;20524;-75
2021/06/12 11:25:16;;;;;;;11.43;2.20;;;;;;;-142.75;34.07;76027.03;5076821;28;20045;-75
2021/06/12 11:27:49;;;;;;;9.00;2.40;;;;;;;-142.75;34.23;76072.31;5078706;28;20020;-74
2021/06/12 11:30:17;;;;;;;6.50;1.60;;;;;;;-142.75;34.57;76202.19;5078679;28;20030;-74
2021/06/12 11:32:58;;;;;;;6.78;2.00;;;;;;;-142.75;35.25;76231.72;5077871;28;20033;-74
2021/06/12 11:35:56;;;;;;;6.28;2.10;;;;;;;-142.75;35.29;76265.19;5079084;28;20381;-75
2021/06/12 11:38:36;;;;;;;7.30;1.88;;;;;;;-142.75;36.60;76298.66;5079298;28;20032;-74